Time;durP1;ratioP1;P1;durP2;ratioP2;P2;SDS_P1;SDS_P2;PMS_P1;PMS_P2;Temp;Humidity;BMP_temperature;BMP_pressure;BME280_temperature;BME280_humidity;BME280_pressure;Samples;Min_cycle;Max_cycle;Signal;HPM_P1;HPM_P2
2022/06/08 00:03:23;;;;;;;2.47;2.27;;;;;;;19.57;63.43;98515.13;6948343;28;20298;-77
2022/06/08 00:06:44;;;;;;;3.10;2.80;;;;;;;19.56;62.43;98510.72;6948232;28;20231;-77
2022/06/08 00:10:09;;;;;;;3.47;3.17;;;;;;;19.51;62.42;98514.25;6947484;28;20234;-77
2022/06/08 00:13:32;;;;;;;3.67;2.60;;;;;;;19.49;62.98;98521.09;6947522;28;20584;-76
2022/06/08 00:16:54;;;;;;;6.20;2.97;;;;;;;19.66;61.76;98513.47;6947331;28;20199;-77
2022/06/08 00:20:15;;;;;;;4.23;2.70;;;;;;;19.74;61.82;98500.09;6946663;28;20231;-77
2022/06/08 00:23:38;;;;;;;3.93;2.57;;;;;;;19.74;62.13;98485.63;6948158;28;20223;-77
2022/06/08 00:27:00;;;;;;;2.87;2.40;;;;;;;19.85;61.48;98485.34;6946799;28;20333;-77
2022/06/08 00:30:24;;;;;;;3.23;2.70;;;;;;;19.46;61.81;98494.31;6944601;28;20272;-76
2022/06/08 00:33:46;;;;;;;4.20;2.50;;;;;;;19.71;61.03;98497.09;6947279;28;20187;-77
2022/06/08 00:37:07;;;;;;;3.20;2.90;;;;;;;19.63;61.01;98494.91;6947257;28;20200;-77
2022/06/08 00:40:46;;;;;;;2.70;2.50;;;;;;;19.65;60.13;98488.06;6946722;28;20284;-77
2022/06/08 00:44:12;;;;;;;3.80;2.93;;;;;;;19.03;63.63;98487.28;6947390;28;20300;-77
2022/06/08 00:47:37;;;;;;;2.37;2.17;;;;;;;19.00;63.18;98490.56;6946806;28;20284;-77
2022/06/08 00:50:59;;;;;;;3.53;2.17;;;;;;;19.36;60.90;98445.88;6947315;28;20305;-77
2022/06/08 00:54:24;;;;;;;5.43;2.47;;;;;;;19.51;61.46;98488.84;6946951;28;20835;-77
2022/06/08 00:57:49;;;;;;;4.03;3.07;;;;;;;18.52;64.16;98482.63;6945959;28;20280;-77
2022/06/08 01:01:11;;;;;;;4.13;2.97;;;;;;;19.49;62.79;98488.28;6947223;28;20374;-77
2022/06/08 01:04:34;;;;;;;3.60;2.40;;;;;;;19.67;61.71;98477.66;6947011;28;20293;-77
2022/06/08 01:07:58;;;;;;;3.97;2.60;;;;;;;19.93;60.46;98478.50;6945753;28;20230;-77
2022/06/08 01:11:25;;;;;;;2.80;2.60;;;;;;;19.96;60.02;98473.31;6946798;28;20227;-77
2022/06/08 01:14:47;;;;;;;2.77;2.57;;;;;;;19.74;61.12;98475.47;6946866;28;20265;-77
2022/06/08 01:18:09;;;;;;;2.70;2.50;;;;;;;18.95;62.52;98482.31;6945889;28;20207;-76
2022/06/08 01:21:52;;;;;;;3.03;2.83;;;;;;;19.52;62.47;98466.69;6946420;28;20759;-77
2022/06/08 01:25:15;;;;;;;4.83;2.70;;;;;;;19.11;63.59;98469.53;6946310;28;20710;-77
2022/06/08 01:28:43;;;;;;;7.20;2.77;;;;;;;19.49;62.47;98467.25;6945305;28;20203;-77
2022/06/08 01:32:10;;;;;;;2.87;2.57;;;;;;;19.70;61.53;98449.75;6944595;28;20337;-77
2022/06/08 01:35:38;;;;;;;3.80;2.77;;;;;;;19.70;61.87;98460.69;6945643;28;20195;-77
2022/06/08 01:39:05;;;;;;;5.70;2.80;;;;;;;19.70;62.14;98449.75;6945528;28;20226;-77
2022/06/08 01:42:38;;;;;;;3.27;2.80;;;;;;;19.02;62.70;98454.75;6945602;28;20231;-78
2022/06/08 01:46:17;;;;;;;3.70;2.93;;;;;;;19.32;62.78;98450.22;6945654;28;20226;-77
2022/06/08 01:49:42;;;;;;;4.30;2.70;;;;;;;18.98;63.09;98412.66;6945686;28;20313;-77
2022/06/08 01:53:07;;;;;;;2.73;2.53;;;;;;;19.33;62.92;98432.75;6945601;28;20264;-77
2022/06/08 01:56:36;;;;;;;3.50;2.50;;;;;;;18.95;64.10;98429.59;6949136;28;20775;-77
2022/06/08 02:00:05;;;;;;;2.70;2.50;;;;;;;19.53;62.12;98426.50;6945462;28;20229;-77
2022/06/08 02:03:30;;;;;;;4.07;2.93;;;;;;;19.27;62.78;98435.75;6945379;28;20253;-76
2022/06/08 02:06:54;;;;;;;4.57;2.93;;;;;;;19.47;61.80;98424.84;6946097;28;20676;-77
2022/06/08 02:10:20;;;;;;;5.20;2.90;;;;;;;19.12;62.91;98438.38;6945173;28;20264;-77
2022/06/08 02:13:46;;;;;;;3.60;3.00;;;;;;;19.30;62.86;98436.03;6945879;28;20226;-77
2022/06/08 02:17:11;;;;;;;6.57;3.17;;;;;;;18.70;63.98;98433.00;6945769;28;20188;-76
2022/06/08 02:20:42;;;;;;;3.33;3.03;;;;;;;18.94;63.86;98414.28;6945056;28;20227;-77
2022/06/08 02:24:07;;;;;;;3.60;3.30;;;;;;;18.58;65.24;98391.44;6945133;28;20600;-76
2022/06/08 02:27:33;;;;;;;4.03;2.97;;;;;;;19.29;63.26;98425.34;6945213;28;20596;-77
2022/06/08 02:31:00;;;;;;;5.77;3.10;;;;;;;19.49;62.55;98422.66;6943774;28;20261;-77
2022/06/08 02:34:31;;;;;;;5.63;3.33;;;;;;;18.99;62.15;98409.66;6944966;28;20680;-77
2022/06/08 02:37:56;;;;;;;4.60;3.27;;;;;;;17.71;67.23;98424.94;6944275;28;20239;-77
2022/06/08 02:41:18;;;;;;;3.80;3.40;;;;;;;18.67;64.76;98428.09;6944776;28;20284;-77
2022/06/08 02:44:40;;;;;;;6.53;3.33;;;;;;;18.83;64.51;98429.81;6944927;28;20315;-77
2022/06/08 02:48:13;;;;;;;3.43;3.20;;;;;;;18.83;63.62;98418.06;6943739;28;20230;-77
2022/06/08 02:51:34;;;;;;;3.40;3.10;;;;;;;18.76;63.47;98410.09;6948140;28;20607;-77
2022/06/08 02:54:57;;;;;;;3.67;3.17;;;;;;;18.71;64.06;98423.75;6951269;28;20211;-77
2022/06/08 02:58:21;;;;;;;7.87;3.07;;;;;;;18.81;63.48;98425.72;6950865;28;20297;-77
2022/06/08 03:01:45;;;;;;;3.37;3.07;;;;;;;18.46;64.25;98412.69;6951027;28;20230;-77
2022/06/08 03:05:11;;;;;;;3.87;3.03;;;;;;;18.63;63.18;98388.75;6951138;28;20798;-77
2022/06/08 03:08:35;;;;;;;16.43;14.77;;;;;;;18.55;63.46;98399.34;6950546;28;20211;-76
2022/06/08 03:11:59;;;;;;;6.07;4.27;;;;;;;18.56;62.71;98368.22;6951342;28;20324;-77
2022/06/08 03:15:23;;;;;;;4.37;3.27;;;;;;;18.77;62.67;98409.03;6951301;28;20229;-77
2022/06/08 03:18:45;;;;;;;4.00;3.30;;;;;;;18.49;63.12;98409.44;6950216;28;20737;-77
2022/06/08 03:22:08;;;;;;;7.93;3.77;;;;;;;18.76;63.00;98410.09;6950510;28;20257;-77
2022/06/08 03:25:30;;;;;;;6.00;3.30;;;;;;;18.00;63.30;98319.88;6951143;28;20210;-77
2022/06/08 03:28:52;;;;;;;4.33;3.37;;;;;;;18.23;63.05;98368.59;6949681;28;20230;-77
2022/06/08 03:32:13;;;;;;;4.20;3.30;;;;;;;18.38;63.09;98395.97;6949335;28;20222;-77
2022/06/08 03:35:35;;;;;;;3.57;3.23;;;;;;;18.15;63.58;98399.91;6950392;28;20243;-77
2022/06/08 03:38:58;;;;;;;3.53;3.23;;;;;;;18.39;63.25;98400.38;6949745;28;20345;-77
2022/06/08 03:42:20;;;;;;;7.80;3.93;;;;;;;18.43;62.77;98380.47;6949797;28;20602;-76
2022/06/08 03:45:45;;;;;;;3.87;3.57;;;;;;;18.57;62.91;98397.19;6949786;28;20294;-77
2022/06/08 03:49:07;;;;;;;5.23;3.70;;;;;;;18.80;62.35;98392.09;6949750;28;20208;-77
2022/06/08 03:52:33;;;;;;;4.90;3.30;;;;;;;18.95;61.77;98394.06;6949672;28;20230;-77
2022/06/08 03:55:57;;;;;;;4.67;2.93;;;;;;;19.15;60.53;98391.38;6962769;28;20251;-77
2022/06/08 03:59:19;;;;;;;5.83;2.93;;;;;;;18.96;60.39;98387.50;6976851;28;20304;-78
2022/06/08 04:02:40;;;;;;;7.50;3.27;;;;;;;18.77;61.80;98381.72;6977003;28;20208;-78
2022/06/08 04:06:02;;;;;;;5.23;3.30;;;;;;;18.94;61.96;98385.06;6975873;28;20234;-77
2022/06/08 04:09:24;;;;;;;5.40;3.20;;;;;;;19.06;61.14;98368.41;6975320;28;20212;-76
2022/06/08 04:12:47;;;;;;;3.50;3.03;;;;;;;18.98;61.21;98388.06;6976252;28;20201;-77
2022/06/08 04:16:08;;;;;;;4.93;3.40;;;;;;;18.95;61.25;98369.47;6976195;28;20206;-77
2022/06/08 04:19:30;;;;;;;9.60;3.13;;;;;;;19.38;60.75;98378.06;6975750;28;20213;-77
2022/06/08 04:22:52;;;;;;;6.43;3.13;;;;;;;18.18;63.06;98393.13;6976357;28;20214;-77
2022/06/08 04:26:15;;;;;;;6.67;3.47;;;;;;;19.07;62.43;98398.22;6975822;28;20444;-77
2022/06/08 04:29:38;;;;;;;4.50;3.00;;;;;;;19.57;61.06;98403.78;6974183;28;20237;-77
2022/06/08 04:33:00;;;;;;;5.67;2.90;;;;;;;19.64;60.77;98389.84;6975859;28;20679;-76
2022/06/08 04:36:22;;;;;;;5.13;2.70;;;;;;;19.74;60.37;98390.69;6975657;28;20210;-77
2022/06/08 04:39:43;;;;;;;4.80;3.17;;;;;;;18.99;62.80;98381.53;6975435;28;20718;-77
2022/06/08 04:43:05;;;;;;;5.87;3.63;;;;;;;19.77;60.95;98395.63;6965570;28;20274;-77
2022/06/08 04:46:28;;;;;;;5.90;3.10;;;;;;;19.79;61.83;98379.75;6945152;28;20253;-77
2022/06/08 04:49:50;;;;;;;3.73;3.00;;;;;;;20.30;59.70;98386.00;6952324;28;20254;-76
2022/06/08 04:53:12;;;;;;;3.30;2.73;;;;;;;20.37;59.11;98378.31;6974476;28;20213;-78
2022/06/08 04:56:33;;;;;;;6.60;3.07;;;;;;;20.48;58.60;98360.75;6971253;28;20281;-77
2022/06/08 04:59:55;;;;;;;3.57;2.50;;;;;;;20.48;57.32;98367.06;6973987;28;20223;-76
2022/06/08 05:03:18;;;;;;;5.93;2.40;;;;;;;20.73;57.54;98377.09;6974659;28;20201;-77
2022/06/08 05:06:39;;;;;;;4.30;2.50;;;;;;;21.01;56.32;98340.81;6977741;28;20707;-77
2022/06/08 05:10:01;;;;;;;6.87;3.10;;;;;;;21.13;56.38;98370.34;6974350;28;20218;-77
2022/06/08 05:13:23;;;;;;;4.77;3.13;;;;;;;21.30;55.28;98370.78;6973992;28;20195;-77
2022/06/08 05:16:44;;;;;;;3.80;2.50;;;;;;;20.99;56.86;98382.19;6974716;28;20287;-77
2022/06/08 05:20:09;;;;;;;6.87;2.87;;;;;;;21.28;56.86;98389.44;6974321;28;20725;-77
2022/06/08 05:23:34;;;;;;;4.30;2.50;;;;;;;21.83;54.33;98386.31;6974729;28;20206;-78
2022/06/08 05:26:56;;;;;;;4.10;2.13;;;;;;;22.16;53.35;98376.41;6974603;28;20765;-78
2022/06/08 05:30:18;;;;;;;4.67;2.10;;;;;;;22.43;52.05;98362.97;6978455;28;20245;-77
2022/06/08 05:33:40;;;;;;;3.30;2.70;;;;;;;22.55;51.53;98380.69;6974888;28;20264;-77
2022/06/08 05:37:03;;;;;;;4.03;2.23;;;;;;;22.13;54.25;98377.81;6973898;28;20257;-78
2022/06/08 05:40:25;;;;;;;2.50;2.23;;;;;;;22.46;53.69;98365.97;6973979;28;20222;-78
2022/06/08 05:43:47;;;;;;;4.03;2.20;;;;;;;22.79;51.28;98375.19;6974488;28;20345;-78
2022/06/08 05:47:09;;;;;;;3.87;2.43;;;;;;;23.54;48.68;98363.97;6973963;28;20275;-78
2022/06/08 05:50:30;;;;;;;2.10;1.90;;;;;;;24.02;46.81;98353.59;6973889;28;20729;-77
2022/06/08 05:53:53;;;;;;;2.20;1.90;;;;;;;24.10;44.72;98358.38;6974298;28;20298;-78
2022/06/08 05:57:15;;;;;;;2.97;2.13;;;;;;;24.37;45.35;98319.84;6971661;28;20287;-77
2022/06/08 06:00:38;;;;;;;4.93;1.80;;;;;;;24.71;43.00;98359.69;6973742;28;20701;-78
2022/06/08 06:04:03;;;;;;;3.67;2.10;;;;;;;25.07;43.54;98359.78;6973546;28;20585;-77
2022/06/08 06:07:25;;;;;;;3.37;2.00;;;;;;;24.79;44.98;98353.47;6972374;28;20222;-78
2022/06/08 06:10:48;;;;;;;4.07;2.00;;;;;;;24.94;44.08;98355.91;6972326;28;20317;-78
2022/06/08 06:14:10;;;;;;;2.13;1.93;;;;;;;24.09;45.31;98349.31;6972193;28;20236;-78
2022/06/08 06:17:32;;;;;;;6.03;2.00;;;;;;;23.59;46.67;98338.31;6957386;28;20204;-78
2022/06/08 06:20:54;;;;;;;4.07;1.70;;;;;;;24.67;44.99;98344.09;6972722;28;20220;-77
2022/06/08 06:24:16;;;;;;;3.23;1.73;;;;;;;25.52;42.32;98342.19;6968843;28;20200;-77
2022/06/08 06:27:39;;;;;;;4.10;2.43;;;;;;;24.40;43.91;98324.75;6975864;28;20231;-77
2022/06/08 06:31:01;;;;;;;3.40;1.87;;;;;;;24.84;41.59;98327.75;6966624;28;20716;-77
2022/06/08 06:34:26;;;;;;;4.10;2.00;;;;;;;24.74;42.92;98327.94;6951514;28;20688;-77
2022/06/08 06:37:48;;;;;;;4.20;1.60;;;;;;;24.90;42.46;98324.53;6949926;28;20187;-77
2022/06/08 06:41:10;;;;;;;3.33;2.00;;;;;;;25.76;41.51;98329.72;6968637;28;20225;-78
2022/06/08 06:44:33;;;;;;;3.23;1.50;;;;;;;26.15;39.43;98316.03;6977884;28;20251;-78
2022/06/08 06:47:55;;;;;;;4.27;1.83;;;;;;;26.80;37.15;98327.22;6976773;28;20226;-78
2022/06/08 06:51:16;;;;;;;3.37;1.73;;;;;;;26.17;37.89;98302.69;6977601;28;20298;-77
2022/06/08 06:54:38;;;;;;;3.00;1.60;;;;;;;25.76;39.29;98329.72;6955449;28;20233;-77
2022/06/08 06:57:59;;;;;;;3.27;1.80;;;;;;;26.10;39.10;98318.09;6949680;28;20297;-77
2022/06/08 07:01:22;;;;;;;2.43;1.47;;;;;;;26.79;37.99;98320.06;6969743;28;20250;-77
2022/06/08 07:04:44;;;;;;;4.93;1.63;;;;;;;24.77;40.40;98321.81;6977275;28;20212;-78
2022/06/08 07:08:06;;;;;;;4.40;1.90;;;;;;;25.57;40.37;98318.06;6978665;28;20257;-78
2022/06/08 07:11:35;;;;;;;2.97;1.53;;;;;;;26.32;36.40;98316.09;6978583;28;20370;-78
2022/06/08 07:14:56;;;;;;;2.80;1.90;;;;;;;27.26;36.67;98299.81;6976137;28;20220;-77
2022/06/08 07:18:19;;;;;;;4.87;2.03;;;;;;;26.62;36.76;98262.75;6975606;28;20207;-77
2022/06/08 07:21:41;;;;;;;2.30;1.57;;;;;;;26.01;39.21;98295.16;6949338;28;20219;-77
2022/06/08 07:25:03;;;;;;;2.87;1.47;;;;;;;26.07;39.46;98285.59;6963064;28;20245;-77
2022/06/08 07:28:25;;;;;;;4.73;1.43;;;;;;;26.54;37.61;98284.84;6962418;28;20777;-77
2022/06/08 07:31:47;;;;;;;3.47;1.80;;;;;;;26.66;37.46;98285.03;6956414;28;20316;-77
2022/06/08 07:35:12;;;;;;;4.90;2.00;;;;;;;26.31;37.00;98264.72;6948535;28;20199;-77
2022/06/08 07:38:34;;;;;;;3.47;1.90;;;;;;;26.14;36.84;98280.41;6967089;28;20291;-77
2022/06/08 07:41:55;;;;;;;3.80;1.60;;;;;;;26.00;38.59;98277.75;6975633;28;20699;-78
2022/06/08 07:45:17;;;;;;;3.57;1.80;;;;;;;26.47;38.40;98251.25;6955275;28;20380;-77
2022/06/08 07:52:21;;;;;;;3.20;1.40;;;;;;;26.56;36.83;98249.38;6948755;28;20747;-77
2022/06/08 07:55:42;;;;;;;4.23;1.77;;;;;;;26.52;38.17;98240.06;6968002;28;20217;-77
2022/06/08 07:59:04;;;;;;;4.60;1.53;;;;;;;26.82;37.01;98234.47;6975670;28;20227;-78
2022/06/08 08:02:26;;;;;;;6.20;2.10;;;;;;;26.10;37.13;98249.00;6976696;28;20228;-78
2022/06/08 08:05:48;;;;;;;3.53;1.87;;;;;;;25.65;38.78;98248.25;6975493;28;20669;-78
2022/06/08 08:09:17;;;;;;;5.10;2.03;;;;;;;25.24;39.05;98231.09;6975834;28;20911;-78
2022/06/08 08:12:39;;;;;;;3.10;1.60;;;;;;;26.06;38.86;98239.72;6976015;28;20673;-78
2022/06/08 08:16:01;;;;;;;4.13;1.73;;;;;;;25.25;39.64;98231.91;6976797;28;20236;-78
2022/06/08 08:19:25;;;;;;;3.27;1.70;;;;;;;26.41;37.94;98238.72;6975916;28;20666;-78
2022/06/08 08:22:47;;;;;;;5.30;1.87;;;;;;;26.48;38.28;98222.50;6976650;28;20239;-78
2022/06/08 08:26:10;;;;;;;4.73;1.90;;;;;;;26.36;37.90;98214.00;6974180;28;20208;-78
2022/06/08 08:29:31;;;;;;;5.47;1.70;;;;;;;26.57;37.58;98238.00;6968954;28;20320;-78
2022/06/08 08:32:53;;;;;;;4.73;1.60;;;;;;;26.29;37.25;98227.47;6976550;28;20279;-78
2022/06/08 08:36:15;;;;;;;7.17;1.60;;;;;;;26.29;36.98;98227.47;6974078;28;20206;-78
2022/06/08 08:39:36;;;;;;;6.10;2.30;;;;;;;27.06;35.89;98204.38;6979154;28;20282;-78
2022/06/08 08:42:59;;;;;;;4.90;2.10;;;;;;;27.55;35.05;98208.56;6971144;28;20262;-77
2022/06/08 08:46:29;;;;;;;2.70;1.70;;;;;;;27.88;35.16;98201.34;6971369;28;20199;-76
2022/06/08 08:49:55;;;;;;;3.57;1.90;;;;;;;28.14;33.33;98208.41;6951570;28;20234;-77
2022/06/08 08:53:23;;;;;;;5.03;2.00;;;;;;;28.44;31.47;98151.84;6948812;28;20302;-78
2022/06/08 08:56:45;;;;;;;2.57;1.63;;;;;;;28.91;32.45;98205.19;6947379;28;20272;-76
2022/06/08 09:00:17;;;;;;;2.13;1.40;;;;;;;28.96;31.15;98191.16;6947407;28;20498;-77
2022/06/08 09:03:41;;;;;;;3.07;1.70;;;;;;;29.22;31.51;98198.13;6948706;28;20235;-77
2022/06/08 09:07:08;;;;;;;2.43;1.80;;;;;;;28.44;33.30;98193.47;6948183;28;20273;-77
2022/06/08 09:10:30;;;;;;;3.33;1.50;;;;;;;29.33;32.56;98182.66;6947144;28;20260;-77
2022/06/08 09:13:53;;;;;;;5.13;1.70;;;;;;;29.40;31.82;98180.13;6947515;28;20203;-77
2022/06/08 09:17:18;;;;;;;5.60;1.93;;;;;;;28.83;33.79;98183.88;6947887;28;20249;-77
2022/06/08 09:20:40;;;;;;;2.47;1.77;;;;;;;28.79;33.68;98155.19;6947456;28;20305;-77
2022/06/08 09:24:03;;;;;;;4.53;1.83;;;;;;;27.95;33.73;98171.16;6947804;28;20231;-77
2022/06/08 09:27:28;;;;;;;2.47;1.43;;;;;;;27.93;35.17;98171.50;6947393;28;20203;-77
2022/06/08 09:30:52;;;;;;;3.13;1.97;;;;;;;28.11;33.23;98164.72;6951602;28;20589;-77
2022/06/08 09:34:19;;;;;;;2.93;1.57;;;;;;;26.54;35.25;98152.13;6966743;28;20199;-77
2022/06/08 09:37:41;;;;;;;4.17;1.93;;;;;;;28.78;33.09;98151.56;6974628;28;20190;-77
2022/06/08 09:41:12;;;;;;;3.50;1.30;;;;;;;28.88;32.02;98140.06;6974930;28;20234;-77
2022/06/08 09:44:39;;;;;;;2.47;1.60;;;;;;;28.92;31.29;98151.31;6947071;28;20222;-77
2022/06/08 09:52:06;;;;;;;4.27;1.53;;;;;;;29.11;32.35;98135.81;6926079;28;21002;-77
2022/06/08 09:55:36;;;;;;;2.60;1.30;;;;;;;29.17;31.35;98122.53;6947096;28;20203;-77
2022/06/08 09:59:06;;;;;;;4.37;1.47;;;;;;;29.85;30.34;98121.78;6973499;28;20195;-77
2022/06/08 10:02:37;;;;;;;3.33;1.60;;;;;;;30.36;29.12;98116.34;6979579;28;20257;-77
2022/06/08 10:06:06;;;;;;;3.40;1.20;;;;;;;29.10;27.63;98106.44;6966416;28;20222;-79
2022/06/08 10:09:33;;;;;;;1.43;1.20;;;;;;;30.34;25.62;98099.22;6957002;28;20796;-79
2022/06/08 10:12:58;;;;;;;2.97;1.40;;;;;;;29.86;27.08;98074.19;6954838;28;20235;-77
2022/06/08 10:16:23;;;;;;;2.27;1.40;;;;;;;30.20;29.14;98086.81;6978536;28;20202;-77
2022/06/08 10:19:52;;;;;;;8.30;1.70;;;;;;;30.42;28.48;98089.91;6953803;28;20225;-77
2022/06/08 10:23:27;;;;;;;2.20;1.47;;;;;;;30.05;28.10;98085.53;6952238;28;20186;-78
2022/06/08 10:26:53;;;;;;;1.83;1.20;;;;;;;30.14;27.80;98066.75;6971507;28;20338;-77
2022/06/08 10:30:17;;;;;;;2.97;1.50;;;;;;;29.85;26.80;98072.53;6954376;28;20354;-77
2022/06/08 10:33:41;;;;;;;2.90;1.40;;;;;;;29.37;26.78;98064.13;6951888;28;20359;-77
2022/06/08 10:37:05;;;;;;;1.87;1.13;;;;;;;29.29;27.47;98051.19;6952072;28;20359;-77
2022/06/08 10:40:30;;;;;;;2.00;1.30;;;;;;;29.05;28.27;98062.22;6950942;28;20253;-78
2022/06/08 10:43:53;;;;;;;1.93;0.90;;;;;;;29.57;27.74;98057.72;6951507;28;20258;-77
2022/06/08 10:47:27;;;;;;;1.33;1.00;;;;;;;29.65;27.39;98067.91;6979023;28;20607;-77
2022/06/08 10:50:50;;;;;;;1.40;1.10;;;;;;;29.34;28.04;98044.59;6978641;28;20704;-78
2022/06/08 10:58:18;;;;;;;2.00;1.20;;;;;;;29.90;27.60;98035.38;6977939;28;20657;-77
2022/06/08 11:01:52;;;;;;;2.67;1.20;;;;;;;30.49;25.94;98020.56;6978411;28;20318;-77
2022/06/08 11:05:19;;;;;;;2.93;1.17;;;;;;;29.80;25.51;98022.78;6978429;28;20275;-77
2022/06/08 11:08:52;;;;;;;2.73;1.07;;;;;;;31.10;24.00;98018.34;6977389;28;20640;-77
2022/06/08 11:12:27;;;;;;;2.20;1.40;;;;;;;31.18;25.09;98004.28;6977569;28;20224;-77
2022/06/08 11:15:52;;;;;;;3.30;1.40;;;;;;;31.39;24.63;98004.84;6978023;28;20213;-77
2022/06/08 11:19:17;;;;;;;1.40;1.07;;;;;;;31.08;25.97;98015.91;6976794;28;20283;-78
2022/06/08 11:22:41;;;;;;;1.93;1.33;;;;;;;30.59;24.65;97999.75;6977531;28;20690;-77
2022/06/08 11:26:28;;;;;;;2.37;1.33;;;;;;;31.70;24.98;98007.59;6957070;28;20667;-77
2022/06/08 11:29:50;;;;;;;2.10;1.30;;;;;;;31.79;23.87;98005.44;6948136;28;20246;-77
2022/06/08 11:33:15;;;;;;;2.43;1.30;;;;;;;31.19;24.54;97986.38;6967844;28;20204;-80
2022/06/08 11:37:08;;;;;;;1.77;1.30;;;;;;;30.91;25.33;97990.38;6978724;28;20292;-76
2022/06/08 11:40:32;;;;;;;3.73;1.23;;;;;;;31.23;24.26;97969.75;6974034;28;20282;-78
2022/06/08 11:43:53;;;;;;;1.30;1.20;;;;;;;31.16;24.60;97964.81;6964197;28;20586;-78
2022/06/08 11:47:17;;;;;;;1.57;1.00;;;;;;;30.38;25.50;97979.69;6971916;28;20641;-78
2022/06/08 11:50:42;;;;;;;1.50;1.00;;;;;;;30.72;25.39;97966.00;6986681;28;20268;-78
2022/06/08 11:54:19;;;;;;;4.20;1.60;;;;;;;30.45;25.32;97965.97;6974419;28;20207;-78
2022/06/08 11:57:44;;;;;;;4.53;1.23;;;;;;;30.63;23.99;97954.19;6978044;28;20212;-78
2022/06/08 12:01:11;;;;;;;2.73;1.40;;;;;;;31.19;23.80;97974.47;6978331;28;20236;-78
2022/06/08 12:04:34;;;;;;;2.30;1.33;;;;;;;29.68;25.53;97967.19;6978977;28;20200;-78
2022/06/08 12:08:03;;;;;;;2.93;1.27;;;;;;;30.47;23.65;97946.94;6977907;28;20754;-78
2022/06/08 12:11:29;;;;;;;3.13;1.30;;;;;;;30.64;24.21;97964.19;6977670;28;20226;-78
2022/06/08 12:14:51;;;;;;;2.47;1.47;;;;;;;30.92;23.86;97951.03;6964215;28;20213;-78
2022/06/08 12:18:41;;;;;;;3.20;1.17;;;;;;;31.63;24.97;97962.84;6979132;28;20205;-78
2022/06/08 12:22:17;;;;;;;2.03;1.00;;;;;;;30.87;24.41;97959.66;6980206;28;20234;-79
2022/06/08 12:25:39;;;;;;;2.67;1.40;;;;;;;30.99;23.19;97917.81;6955169;28;20282;-79
2022/06/08 12:29:21;;;;;;;3.37;1.23;;;;;;;31.47;23.35;97939.75;6951662;28;20230;-79
2022/06/08 12:32:52;;;;;;;3.30;1.23;;;;;;;31.90;23.57;97944.38;6952499;28;20234;-79
2022/06/08 12:36:21;;;;;;;2.20;1.20;;;;;;;31.44;23.18;97939.66;6973137;28;20226;-79
2022/06/08 12:39:43;;;;;;;2.17;1.30;;;;;;;30.63;24.27;97940.28;6976107;28;20222;-81
2022/06/08 12:43:17;;;;;;;2.53;2.00;;;;;;;30.26;24.66;97922.13;6975568;28;20253;-80
2022/06/08 12:46:48;;;;;;;2.03;1.30;;;;;;;30.98;24.06;97929.31;6979619;28;20273;-80
2022/06/08 12:50:14;;;;;;;1.37;1.20;;;;;;;30.35;24.24;97933.91;6979373;28;20712;-80
2022/06/08 12:53:35;;;;;;;2.20;1.17;;;;;;;29.94;24.37;97923.13;6968774;28;20217;-80
2022/06/08 12:57:01;;;;;;;1.60;1.30;;;;;;;30.73;22.90;97917.50;6952551;28;20300;-80
2022/06/08 13:00:27;;;;;;;1.83;1.13;;;;;;;30.46;24.87;97923.06;6964691;28;20260;-80
2022/06/08 13:03:51;;;;;;;1.07;1.03;;;;;;;30.03;25.24;97904.34;6979718;28;20219;-80
2022/06/08 13:07:14;;;;;;;1.60;1.10;;;;;;;29.77;25.66;97870.59;6979796;28;20286;-80
2022/06/08 13:10:36;;;;;;;4.07;1.50;;;;;;;29.90;nan;97877.72;6960869;28;20316;-80
2022/06/08 13:13:58;;;;;;;2.47;1.13;;;;;;;30.62;23.49;97913.63;6977455;28;20210;-80
2022/06/08 13:17:21;;;;;;;2.77;1.40;;;;;;;30.49;24.07;97914.81;6974875;28;20204;-80
2022/06/08 13:20:44;;;;;;;2.13;1.40;;;;;;;30.37;23.62;97903.75;6977863;28;20267;-80
2022/06/08 13:24:06;;;;;;;1.30;1.10;;;;;;;30.29;24.18;97895.56;6953827;28;20212;-79
2022/06/08 13:27:27;;;;;;;3.07;1.43;;;;;;;30.03;24.61;97898.78;6964905;28;20208;-79
2022/06/08 13:30:52;;;;;;;2.43;1.50;;;;;;;30.64;25.42;97902.09;6965238;28;20228;-79
2022/06/08 13:34:14;;;;;;;1.33;1.20;;;;;;;30.67;24.87;97895.88;6979573;28;20603;-79
2022/06/08 13:37:41;;;;;;;2.43;1.40;;;;;;;30.29;24.88;97896.38;6995037;28;20239;-80
2022/06/08 13:41:03;;;;;;;1.57;1.10;;;;;;;29.52;25.53;97865.41;6996062;28;20232;-80
2022/06/08 13:44:27;;;;;;;2.80;1.33;;;;;;;30.18;23.60;97889.72;6983603;28;20221;-79
2022/06/08 13:47:54;;;;;;;0.80;0.80;;;;;;;30.44;24.63;97890.03;6978176;28;20210;-80
2022/06/08 13:51:16;;;;;;;2.10;1.00;;;;;;;30.39;24.50;97881.16;6962081;28;20315;-80
2022/06/08 13:54:41;;;;;;;1.43;1.17;;;;;;;30.55;23.99;97866.09;6969301;28;20207;-79
2022/06/08 13:58:06;;;;;;;1.90;1.37;;;;;;;30.54;23.96;97863.69;6977691;28;20653;-79
2022/06/08 14:01:31;;;;;;;3.43;1.07;;;;;;;30.00;24.83;97874.47;6978307;28;20677;-80
2022/06/08 14:04:55;;;;;;;4.60;1.20;;;;;;;30.42;24.51;97861.78;6978601;28;20209;-79
2022/06/08 14:15:39;;;;;;;2.50;1.20;;;;;;;30.57;24.04;97876.88;6978784;28;20645;-79
2022/06/08 14:19:01;;;;;;;1.63;1.10;;;;;;;28.48;26.03;97892.06;6977466;28;20291;-79
2022/06/08 14:22:26;;;;;;;2.77;1.50;;;;;;;29.47;25.12;97882.31;6978639;28;20230;-79
2022/06/08 14:25:50;;;;;;;2.93;1.20;;;;;;;29.28;24.10;97880.16;6978812;28;20207;-80
2022/06/08 14:29:14;;;;;;;2.83;1.10;;;;;;;29.18;26.32;97883.38;6976764;28;20306;-80
2022/06/08 14:32:39;;;;;;;2.57;1.37;;;;;;;29.67;25.28;97881.41;6962565;28;20276;-79
2022/06/08 14:36:02;;;;;;;2.30;1.20;;;;;;;29.35;25.60;97860.13;6977338;28;20210;-79
2022/06/08 14:39:29;;;;;;;3.33;1.37;;;;;;;29.74;25.32;97842.72;6963752;28;20603;-79
2022/06/08 14:42:50;;;;;;;2.97;1.47;;;;;;;30.01;25.00;97872.50;6977193;28;20212;-79
2022/06/08 14:46:16;;;;;;;1.60;1.23;;;;;;;29.75;25.38;97870.16;6978204;28;20219;-80
2022/06/08 14:49:38;;;;;;;2.10;1.20;;;;;;;28.80;26.11;97876.53;6982981;28;20250;-79
2022/06/08 14:53:00;;;;;;;3.17;1.20;;;;;;;29.06;26.30;97882.56;6982397;28;20663;-79
2022/06/08 14:56:26;;;;;;;1.73;1.13;;;;;;;28.51;27.16;97873.94;6982711;28;20211;-79
2022/06/08 14:59:49;;;;;;;3.23;1.40;;;;;;;28.72;27.58;97894.88;6980517;28;20277;-79
2022/06/08 15:03:15;;;;;;;1.83;0.97;;;;;;;28.34;28.69;97935.91;6982496;28;20295;-79
2022/06/08 15:06:37;;;;;;;2.83;1.27;;;;;;;27.44;30.32;97927.63;6983241;28;20198;-79
2022/06/08 15:09:59;;;;;;;3.43;1.70;;;;;;;26.29;35.40;97935.28;6982094;28;20222;-79
2022/06/08 15:13:21;;;;;;;2.07;1.60;;;;;;;25.94;37.92;97933.69;6982665;28;20579;-79
2022/06/08 15:16:42;;;;;;;3.20;1.50;;;;;;;25.39;39.91;97978.72;6982536;28;20296;-79
2022/06/08 15:20:12;;;;;;;1.50;1.40;;;;;;;25.20;41.51;97984.47;6981090;28;20363;-79
2022/06/08 15:23:36;;;;;;;1.40;1.27;;;;;;;25.07;43.70;97926.66;6958424;28;20188;-79
2022/06/08 15:27:02;;;;;;;2.67;1.70;;;;;;;25.32;44.44;97972.88;6975818;28;20227;-81
2022/06/08 15:30:26;;;;;;;3.43;1.67;;;;;;;25.28;44.21;97956.13;6974997;28;20285;-78
2022/06/08 15:33:48;;;;;;;6.57;3.70;;;;;;;25.58;44.35;97959.94;6966400;28;20602;-78
2022/06/08 15:37:18;;;;;;;3.37;2.07;;;;;;;25.41;45.18;97971.75;6984700;28;20209;-80
2022/06/08 15:40:40;;;;;;;3.03;2.03;;;;;;;24.97;47.75;97958.13;6988193;28;20325;-79
2022/06/08 15:44:01;;;;;;;3.47;2.00;;;;;;;25.25;48.84;97989.88;6965241;28;20694;-79
2022/06/08 15:47:26;;;;;;;3.20;1.73;;;;;;;25.20;48.00;97995.50;6955096;28;20312;-79
2022/06/08 15:50:50;;;;;;;4.13;2.00;;;;;;;24.84;48.22;98005.88;6955261;28;20236;-79
2022/06/08 15:54:15;;;;;;;5.47;2.07;;;;;;;24.03;51.78;98019.19;6953466;28;20243;-78
2022/06/08 15:57:39;;;;;;;4.07;2.33;;;;;;;23.82;52.36;98012.47;6954254;28;20215;-78
2022/06/08 16:01:01;;;;;;;3.60;1.97;;;;;;;23.80;51.64;98050.53;6965170;28;20236;-79
2022/06/08 16:04:22;;;;;;;3.70;2.50;;;;;;;23.74;50.47;98052.56;6970050;28;20213;-79
2022/06/08 16:07:45;;;;;;;5.30;2.87;;;;;;;23.34;55.09;98072.66;6968807;28;20211;-79
2022/06/08 16:11:08;;;;;;;7.10;2.43;;;;;;;23.34;54.26;98060.81;6965704;28;20232;-79
2022/06/08 16:14:29;;;;;;;4.87;2.33;;;;;;;23.73;54.82;98085.91;6962804;28;20259;-79
2022/06/08 16:17:51;;;;;;;4.37;2.70;;;;;;;23.31;53.12;98077.97;6965049;28;20233;-79
2022/06/08 16:21:13;;;;;;;5.13;2.70;;;;;;;23.23;53.64;98078.66;6967889;28;20484;-79
2022/06/08 16:24:34;;;;;;;3.60;2.90;;;;;;;23.17;55.21;98072.44;6969195;28;20211;-79